Time;durP1;ratioP1;P1;durP2;ratioP2;P2;SDS_P1;SDS_P2;PMS_P1;PMS_P2;Temp;Humidity;BMP_temperature;BMP_pressure;BME280_temperature;BME280_humidity;BME280_pressure;Samples;Min_cycle;Max_cycle;Signal;HPM_P1;HPM_P2
2022/11/11 00:02:39;;;;;;;36.03;20.70;;;11.90;99.90;;;;;;5087279;28;20690;-71
2022/11/11 00:05:24;;;;;;;30.77;19.98;;;11.90;99.90;;;;;;5085873;28;20559;-75
2022/11/11 00:08:09;;;;;;;33.83;19.52;;;11.90;99.90;;;;;;5083586;28;20031;-71
2022/11/11 00:11:00;;;;;;;30.40;18.42;;;11.90;99.90;;;;;;5089002;28;20313;-73
2022/11/11 00:13:44;;;;;;;31.90;20.45;;;11.90;99.90;;;;;;5088049;28;20031;-79
2022/11/11 00:25:04;;;;;;;33.85;21.25;;;11.90;99.90;;;;;;5075754;28;20046;-71
2022/11/11 00:25:39;;;;;;;28.58;20.95;;;11.90;99.90;;;;;;5088861;28;20051;-73
2022/11/11 00:28:24;;;;;;;30.77;18.38;;;11.90;99.90;;;;;;5082082;28;20043;-79
2022/11/11 00:31:10;;;;;;;33.03;19.95;;;11.90;99.90;;;;;;5075599;28;20036;-74
2022/11/11 00:33:55;;;;;;;30.20;19.02;;;11.90;99.90;;;;;;5071544;28;20043;-75
2022/11/11 00:36:39;;;;;;;31.90;20.48;;;11.80;99.90;;;;;;5074787;28;20078;-78
2022/11/11 00:39:24;;;;;;;28.35;19.13;;;11.90;99.90;;;;;;5073091;28;20082;-73
2022/11/11 00:42:08;;;;;;;29.33;19.05;;;11.80;99.90;;;;;;5081225;28;20101;-72
2022/11/11 00:44:53;;;;;;;34.08;20.58;;;11.80;99.90;;;;;;5086477;28;20101;-71
2022/11/11 00:50:59;;;;;;;;;;;11.80;99.90;;;;;;5079838;28;20066;-77
2022/11/11 00:53:44;;;;;;;27.98;18.20;;;11.70;99.90;;;;;;5085536;28;20004;-72
2022/11/11 00:56:28;;;;;;;35.33;18.40;;;11.80;99.90;;;;;;5073282;28;20048;-71
2022/11/11 00:59:13;;;;;;;30.42;18.83;;;11.70;99.90;;;;;;5080431;28;20039;-76
2022/11/11 01:01:58;;;;;;;31.30;18.67;;;11.70;99.90;;;;;;5093245;28;20469;-75
2022/11/11 01:04:42;;;;;;;31.35;19.33;;;11.70;99.90;;;;;;5075061;28;20038;-72
2022/11/11 01:07:27;;;;;;;30.73;18.55;;;11.70;99.90;;;;;;5094813;28;20162;-72
2022/11/11 01:10:11;;;;;;;28.40;18.20;;;11.70;99.90;;;;;;5084187;28;20035;-70
2022/11/11 01:13:10;;;;;;;32.38;19.30;;;11.60;99.90;;;;;;5089026;28;20098;-70
2022/11/11 01:16:03;;;;;;;27.38;16.73;;;11.60;99.90;;;;;;5076687;28;20050;-71
2022/11/11 01:18:49;;;;;;;29.00;18.77;;;11.60;99.90;;;;;;5083755;28;20054;-70
2022/11/11 01:21:34;;;;;;;27.58;19.48;;;11.50;99.90;;;;;;5070854;28;20044;-70
2022/11/11 01:24:18;;;;;;;25.50;17.60;;;11.50;99.90;;;;;;5080158;28;20052;-70
2022/11/11 01:27:03;;;;;;;29.65;18.60;;;11.50;99.90;;;;;;5074393;28;20082;-74
2022/11/11 01:29:47;;;;;;;29.90;19.13;;;11.50;99.90;;;;;;5077030;28;20747;-70
2022/11/11 01:32:31;;;;;;;27.83;18.88;;;11.40;99.90;;;;;;5085375;28;20040;-72
2022/11/11 01:35:16;;;;;;;30.58;18.02;;;11.40;99.90;;;;;;5084125;28;20387;-72
2022/11/11 01:38:00;;;;;;;35.08;19.08;;;11.50;99.90;;;;;;5095081;28;20397;-72
2022/11/11 01:40:47;;;;;;;27.52;17.20;;;11.40;99.90;;;;;;5100746;28;20046;-75
2022/11/11 01:43:31;;;;;;;28.40;18.05;;;11.40;99.90;;;;;;5078360;28;20127;-78
2022/11/11 01:46:36;;;;;;;29.33;18.05;;;11.40;99.90;;;;;;5078935;28;20422;-73
2022/11/11 01:49:23;;;;;;;26.80;17.23;;;11.40;99.90;;;;;;5076396;28;20048;-79
2022/11/11 01:52:19;;;;;;;27.27;17.60;;;11.30;99.90;;;;;;5076060;28;20044;-73
2022/11/11 01:55:21;;;;;;;30.55;19.23;;;11.30;99.90;;;;;;5084314;28;20043;-72
2022/11/11 01:58:09;;;;;;;31.05;17.35;;;11.30;99.90;;;;;;5082876;28;20039;-76
2022/11/11 02:00:54;;;;;;;30.25;17.98;;;11.20;99.90;;;;;;5080087;28;20035;-69
2022/11/11 02:05:40;;;;;;;31.88;18.98;;;11.20;99.90;;;;;;5091985;28;20737;-71
2022/11/11 02:06:47;;;;;;;29.40;17.75;;;11.10;99.90;;;;;;5089233;28;20034;-71
2022/11/11 02:09:31;;;;;;;30.48;17.40;;;11.10;99.90;;;;;;5081517;28;20437;-71
2022/11/11 02:15:19;;;;;;;29.08;17.45;;;10.90;99.90;;;;;;5082339;28;20043;-75
2022/11/11 02:18:04;;;;;;;31.90;19.23;;;10.90;99.90;;;;;;5085432;28;20513;-73
2022/11/11 02:20:49;;;;;;;28.98;18.95;;;10.70;99.90;;;;;;5075133;28;20100;-72
2022/11/11 02:24:03;;;;;;;30.65;17.92;;;10.70;99.90;;;;;;5074924;28;20140;-73
2022/11/11 02:26:48;;;;;;;26.52;17.25;;;10.60;99.90;;;;;;5074439;28;20043;-71
2022/11/11 02:29:34;;;;;;;32.83;19.77;;;10.50;99.90;;;;;;5072329;28;20098;-73
2022/11/11 02:32:19;;;;;;;27.65;18.73;;;10.40;99.90;;;;;;5072975;28;20230;-70
2022/11/11 02:35:13;;;;;;;27.95;17.88;;;10.30;99.90;;;;;;5072739;28;20032;-70
2022/11/11 02:37:59;;;;;;;32.38;19.55;;;10.20;99.90;;;;;;5073400;28;20486;-70
2022/11/11 02:43:48;;;;;;;30.27;18.63;;;10.10;99.90;;;;;;5071911;28;20517;-70
2022/11/11 02:46:33;;;;;;;27.65;19.42;;;10.00;99.90;;;;;;5072251;28;20070;-70
2022/11/11 02:49:18;;;;;;;34.50;21.45;;;9.90;99.90;;;;;;5072570;28;20047;-71
2022/11/11 02:52:02;;;;;;;31.88;21.15;;;9.90;99.90;;;;;;5072758;28;20082;-70
2022/11/11 02:54:48;;;;;;;32.50;19.95;;;9.80;99.90;;;;;;5071950;28;20102;-71
2022/11/11 02:57:33;;;;;;;35.65;20.63;;;9.80;99.90;;;;;;5072841;28;20119;-71
2022/11/11 03:00:18;;;;;;;34.13;20.58;;;9.80;99.90;;;;;;5072905;28;20048;-71
2022/11/11 03:03:02;;;;;;;38.83;21.63;;;9.70;99.90;;;;;;5071541;28;20478;-70
2022/11/11 03:05:47;;;;;;;35.47;20.90;;;9.70;99.90;;;;;;5071522;28;20093;-70
2022/11/11 03:08:31;;;;;;;32.03;19.25;;;9.70;99.90;;;;;;5071919;28;20102;-70
2022/11/11 03:11:26;;;;;;;29.83;21.40;;;9.70;99.90;;;;;;5071563;28;20078;-71
2022/11/11 03:14:11;;;;;;;32.55;20.55;;;9.60;99.90;;;;;;5071151;28;20051;-72
2022/11/11 03:21:03;;;;;;;34.17;20.67;;;9.60;99.90;;;;;;5074857;28;20094;-70
2022/11/11 03:23:12;;;;;;;35.35;20.58;;;9.60;99.90;;;;;;5070050;28;20445;-72
2022/11/11 03:25:57;;;;;;;31.83;20.85;;;9.50;99.90;;;;;;5071511;28;20166;-72
2022/11/11 03:28:41;;;;;;;32.13;21.23;;;9.40;99.90;;;;;;5071039;28;20159;-70
2022/11/11 03:31:25;;;;;;;31.67;20.58;;;9.50;99.90;;;;;;5071692;28;20039;-70
2022/11/11 03:34:19;;;;;;;32.30;20.30;;;9.40;99.90;;;;;;5071531;28;20086;-72
2022/11/11 03:40:08;;;;;;;35.28;21.17;;;9.40;99.90;;;;;;5071756;28;20315;-71
2022/11/11 03:42:53;;;;;;;33.30;21.50;;;9.40;99.90;;;;;;5070582;28;20036;-70
2022/11/11 03:45:38;;;;;;;32.45;20.73;;;9.40;99.90;;;;;;5069925;28;20458;-80
2022/11/11 03:48:23;;;;;;;32.90;20.98;;;9.30;99.90;;;;;;5070702;28;20063;-71
2022/11/11 03:51:08;;;;;;;35.72;21.20;;;9.30;99.90;;;;;;5070985;28;20043;-72
2022/11/11 03:53:53;;;;;;;38.00;21.27;;;9.30;99.90;;;;;;5071478;28;20051;-78
2022/11/11 03:56:37;;;;;;;35.90;22.33;;;9.30;99.90;;;;;;5070400;28;20098;-70
2022/11/11 03:59:22;;;;;;;32.05;21.05;;;9.30;99.90;;;;;;5070335;28;20067;-79
2022/11/11 04:11:28;;;;;;;33.33;19.85;;;9.10;99.90;;;;;;5070213;28;20085;-75
2022/11/11 04:17:16;;;;;;;;;;;9.10;99.90;;;;;;5070348;28;20027;-70
2022/11/11 04:23:04;;;;;;;32.58;21.00;;;9.00;99.90;;;;;;5069057;28;20043;-76
2022/11/11 04:42:41;;;;;;;30.85;20.83;;;9.50;99.90;;;;;;5099405;28;20066;-79
2022/11/11 04:45:29;;;;;;;26.60;19.20;;;9.50;99.90;;;;;;5102625;28;20073;-72
2022/11/11 04:48:15;;;;;;;30.17;20.50;;;9.50;99.90;;;;;;5094354;28;20059;-80
2022/11/11 04:50:59;;;;;;;32.33;19.35;;;9.50;99.90;;;;;;5086687;28;20544;-71
2022/11/11 04:53:44;;;;;;;30.13;20.58;;;9.50;99.90;;;;;;5086247;28;20608;-73
2022/11/11 04:56:47;;;;;;;29.95;20.13;;;9.50;99.90;;;;;;5086321;28;20455;-71
2022/11/11 04:59:31;;;;;;;32.88;18.95;;;9.40;99.90;;;;;;5085925;28;20517;-71
2022/11/11 05:05:18;;;;;;;32.08;18.83;;;9.30;99.90;;;;;;5086885;28;20086;-74
2022/11/11 05:11:06;;;;;;;36.83;23.15;;;9.20;99.90;;;;;;5086089;28;20081;-72
2022/11/11 05:23:03;;;;;;;37.40;22.88;;;9.20;99.90;;;;;;5093555;28;20500;-71
2022/11/11 05:25:47;;;;;;;34.45;21.60;;;9.10;99.90;;;;;;5092601;28;20043;-73
2022/11/11 05:28:32;;;;;;;30.45;19.20;;;9.10;99.90;;;;;;5085497;28;20059;-71
2022/11/11 05:31:17;;;;;;;28.77;18.48;;;9.10;99.90;;;;;;5103576;28;20508;-72
2022/11/11 05:34:01;;;;;;;35.83;22.10;;;9.10;99.90;;;;;;5094231;28;20098;-75
2022/11/11 05:36:45;;;;;;;33.78;22.77;;;9.10;99.90;;;;;;5098068;28;20031;-75
2022/11/11 05:39:30;;;;;;;41.53;25.08;;;9.10;99.90;;;;;;5118648;28;20054;-72
2022/11/11 05:42:15;;;;;;;34.10;23.35;;;9.20;99.90;;;;;;5109675;28;20038;-70
2022/11/11 05:44:59;;;;;;;36.17;24.88;;;9.30;99.90;;;;;;5112825;28;20039;-70
2022/11/11 05:47:44;;;;;;;41.08;23.95;;;9.30;99.90;;;;;;5112405;28;20061;-70
2022/11/11 05:50:28;;;;;;;36.47;21.77;;;9.40;99.90;;;;;;5109137;27;20394;-70
2022/11/11 05:53:14;;;;;;;33.92;22.00;;;9.40;99.90;;;;;;5109610;28;20137;-71
2022/11/11 05:55:58;;;;;;;42.78;22.10;;;9.40;99.90;;;;;;5112257;27;20092;-71
2022/11/11 05:58:42;;;;;;;37.05;22.83;;;9.40;99.90;;;;;;5112041;28;20047;-71
2022/11/11 06:01:27;;;;;;;32.58;23.23;;;9.40;99.90;;;;;;5112319;28;20520;-70
2022/11/11 06:04:12;;;;;;;34.15;22.08;;;9.50;99.90;;;;;;5112128;28;20488;-71
2022/11/11 06:06:56;;;;;;;31.13;21.63;;;9.50;99.90;;;;;;5110144;28;20039;-71
2022/11/11 06:09:41;;;;;;;33.30;22.58;;;9.60;99.90;;;;;;5106851;28;20092;-70
2022/11/11 06:13:00;;;;;;;30.80;21.48;;;9.70;99.90;;;;;;5111892;28;20042;-70
2022/11/11 06:15:37;;;;;;;34.70;21.65;;;9.60;99.90;;;;;;5111957;28;20137;-71
2022/11/11 06:18:22;;;;;;;35.42;22.35;;;9.60;99.90;;;;;;5109351;27;20088;-71
2022/11/11 06:21:06;;;;;;;31.40;22.30;;;9.50;99.90;;;;;;5111433;27;20069;-70
2022/11/11 06:23:51;;;;;;;34.75;24.10;;;9.50;99.90;;;;;;5115825;27;20066;-76
2022/11/11 06:26:35;;;;;;;31.48;23.30;;;9.30;99.90;;;;;;5112204;28;20054;-71
2022/11/11 06:29:20;;;;;;;33.55;22.95;;;9.30;99.90;;;;;;5111298;28;20054;-71
2022/11/11 06:32:04;;;;;;;35.53;22.85;;;9.20;99.90;;;;;;5111123;28;20042;-72
2022/11/11 06:34:49;;;;;;;36.35;23.20;;;9.20;99.90;;;;;;5111665;28;20143;-70
2022/11/11 06:37:33;;;;;;;33.35;23.15;;;9.20;99.90;;;;;;5108908;28;20090;-70
2022/11/11 06:40:18;;;;;;;37.72;23.58;;;9.20;99.90;;;;;;5129957;27;20562;-72
2022/11/11 06:43:02;;;;;;;35.28;23.30;;;9.20;99.90;;;;;;5115096;27;20039;-78
2022/11/11 06:45:51;;;;;;;36.92;23.73;;;9.20;99.90;;;;;;5113235;28;20042;-72
2022/11/11 06:48:36;;;;;;;35.92;24.23;;;9.30;99.90;;;;;;5112485;28;20123;-72
2022/11/11 06:51:20;;;;;;;36.55;24.52;;;9.30;99.90;;;;;;5111661;28;20042;-76
2022/11/11 06:54:05;;;;;;;36.25;23.88;;;9.30;99.90;;;;;;5112276;28;20047;-72
2022/11/11 06:56:49;;;;;;;34.05;22.70;;;9.50;99.90;;;;;;5112565;28;20089;-72
2022/11/11 06:59:34;;;;;;;32.60;23.27;;;9.60;99.90;;;;;;5112117;28;20051;-72
2022/11/11 07:02:18;;;;;;;37.70;22.95;;;9.60;99.90;;;;;;5097263;28;20047;-71
2022/11/11 07:05:03;;;;;;;33.38;22.15;;;9.60;99.90;;;;;;5112240;28;20504;-72
2022/11/11 07:07:47;;;;;;;33.97;23.17;;;9.70;99.90;;;;;;5112437;28;20140;-73
2022/11/11 07:10:33;;;;;;;34.28;23.88;;;9.80;99.90;;;;;;5112107;28;20332;-72
2022/11/11 07:13:17;;;;;;;43.78;24.85;;;9.80;99.90;;;;;;5111894;28;20061;-72
2022/11/11 07:16:02;;;;;;;35.42;23.70;;;9.80;99.90;;;;;;5112032;28;20458;-72
2022/11/11 07:18:46;;;;;;;33.38;21.70;;;9.90;99.90;;;;;;5112360;28;20187;-72
2022/11/11 07:21:30;;;;;;;33.08;22.65;;;10.00;99.90;;;;;;5112387;28;20034;-72
2022/11/11 07:24:15;;;;;;;28.08;19.02;;;10.10;99.90;;;;;;5112277;28;20038;-77
2022/11/11 07:27:00;;;;;;;28.67;18.50;;;10.10;99.90;;;;;;5111905;28;20046;-72
2022/11/11 07:29:47;;;;;;;25.67;18.40;;;10.20;99.90;;;;;;5096070;28;20088;-73
2022/11/11 07:32:32;;;;;;;26.65;19.05;;;10.20;99.90;;;;;;5112179;28;20038;-72
2022/11/11 07:35:18;;;;;;;27.60;18.58;;;10.20;99.90;;;;;;5111982;28;20363;-71
2022/11/11 07:38:02;;;;;;;30.33;19.20;;;10.10;99.90;;;;;;5125742;27;20187;-72
2022/11/11 07:40:47;;;;;;;28.98;18.40;;;10.20;99.90;;;;;;5124253;27;20093;-76
2022/11/11 07:43:31;;;;;;;27.42;17.52;;;10.20;99.90;;;;;;5111086;28;20053;-72
2022/11/11 07:46:16;;;;;;;32.78;19.65;;;10.30;99.90;;;;;;5111783;28;20557;-73
2022/11/11 07:49:00;;;;;;;27.77;19.65;;;10.30;99.90;;;;;;5111679;28;20136;-73
2022/11/11 07:51:45;;;;;;;28.00;18.23;;;10.40;99.90;;;;;;5111164;28;20500;-73
2022/11/11 07:54:30;;;;;;;31.92;19.98;;;10.70;99.90;;;;;;5104805;27;20450;-71
2022/11/11 07:57:14;;;;;;;27.67;18.70;;;10.70;99.90;;;;;;5114133;27;20092;-72
2022/11/11 07:59:58;;;;;;;29.65;17.92;;;10.60;99.90;;;;;;5111113;28;20030;-72
2022/11/11 08:02:47;;;;;;;24.88;17.08;;;10.70;99.90;;;;;;5110784;28;20061;-75
2022/11/11 08:05:32;;;;;;;26.67;17.00;;;10.90;99.90;;;;;;5110734;28;20378;-72
2022/11/11 08:08:17;;;;;;;25.85;18.52;;;10.80;99.90;;;;;;5110501;28;20053;-73
2022/11/11 08:11:01;;;;;;;25.80;17.63;;;10.90;99.90;;;;;;5110412;28;20042;-73
2022/11/11 08:13:49;;;;;;;29.77;17.88;;;11.00;99.90;;;;;;5110501;28;20046;-77
2022/11/11 08:16:33;;;;;;;28.35;18.40;;;11.00;99.90;;;;;;5111248;28;20136;-72
2022/11/11 08:19:18;;;;;;;24.73;16.75;;;11.20;99.90;;;;;;5110750;28;20444;-72
2022/11/11 08:22:03;;;;;;;30.67;17.85;;;11.30;99.90;;;;;;5110620;28;20090;-72
2022/11/11 08:24:48;;;;;;;31.52;18.65;;;11.40;99.90;;;;;;5110913;28;20159;-72
2022/11/11 08:27:33;;;;;;;27.05;18.63;;;11.50;99.90;;;;;;5110735;28;20518;-72
2022/11/11 08:30:17;;;;;;;30.17;18.63;;;11.60;99.90;;;;;;5122023;28;20099;-73
2022/11/11 08:33:04;;;;;;;32.28;18.38;;;11.60;99.90;;;;;;5116916;28;20456;-73
2022/11/11 08:35:48;;;;;;;27.05;17.10;;;11.60;99.90;;;;;;5117223;28;20746;-72
2022/11/11 08:38:34;;;;;;;24.10;15.77;;;11.80;99.90;;;;;;5125129;28;20139;-73
2022/11/11 08:41:20;;;;;;;22.67;14.93;;;11.90;99.90;;;;;;5125435;28;20488;-72
2022/11/11 08:44:04;;;;;;;29.17;17.35;;;11.90;99.90;;;;;;5111011;28;20059;-72
2022/11/11 08:46:49;;;;;;;27.85;17.40;;;12.00;99.90;;;;;;5122845;28;20046;-72
2022/11/11 08:49:33;;;;;;;30.08;17.30;;;12.20;99.90;;;;;;5110653;28;20042;-72
2022/11/11 08:52:18;;;;;;;23.25;15.88;;;12.30;99.90;;;;;;5110900;28;20097;-73
2022/11/11 08:55:03;;;;;;;29.00;18.48;;;12.50;99.90;;;;;;5110894;28;20034;-71
2022/11/11 08:57:47;;;;;;;26.52;17.17;;;12.50;99.90;;;;;;5110724;28;20047;-72
2022/11/11 09:00:33;;;;;;;26.00;16.08;;;12.40;99.90;;;;;;5110558;28;20055;-71
2022/11/11 09:03:17;;;;;;;25.13;16.88;;;12.60;99.90;;;;;;5110434;28;20438;-72
2022/11/11 09:06:02;;;;;;;23.75;16.83;;;12.60;99.90;;;;;;5110798;28;20080;-71
2022/11/11 09:08:46;;;;;;;29.58;16.63;;;12.80;99.90;;;;;;5110658;28;20055;-72
2022/11/11 09:11:35;;;;;;;24.85;16.77;;;12.90;99.90;;;;;;5110886;28;20049;-73
2022/11/11 09:14:19;;;;;;;25.15;15.80;;;12.80;99.90;;;;;;5114540;27;20042;-71
2022/11/11 09:17:05;;;;;;;26.27;16.80;;;12.90;99.90;;;;;;5114423;27;20050;-71
2022/11/11 09:19:50;;;;;;;23.88;16.23;;;12.80;99.90;;;;;;5120447;27;20414;-72
2022/11/11 09:22:41;;;;;;;26.83;16.23;;;12.90;99.90;;;;;;5134670;27;20034;-73
2022/11/11 09:25:26;;;;;;;29.00;17.33;;;13.00;99.90;;;;;;5134146;27;20415;-75
2022/11/11 09:28:10;;;;;;;23.83;16.55;;;13.20;99.90;;;;;;5131807;27;20054;-71
2022/11/11 09:30:55;;;;;;;24.58;14.85;;;13.00;99.90;;;;;;5125198;27;20030;-71
2022/11/11 09:33:39;;;;;;;23.65;15.20;;;13.00;99.90;;;;;;5116662;27;20308;-72
2022/11/11 09:36:24;;;;;;;22.27;15.13;;;13.10;99.90;;;;;;5114060;27;20043;-72
2022/11/11 09:39:08;;;;;;;20.42;14.13;;;13.00;99.90;;;;;;5133912;27;20541;-74
2022/11/11 09:42:16;;;;;;;26.45;16.27;;;13.10;99.90;;;;;;5134276;27;20040;-72
2022/11/11 09:45:22;;;;;;;27.40;16.02;;;13.10;99.90;;;;;;5132376;27;20076;-73
2022/11/11 09:48:23;;;;;;;23.73;15.05;;;13.10;99.90;;;;;;5129521;27;20071;-72
2022/11/11 09:51:19;;;;;;;25.25;15.05;;;13.20;99.90;;;;;;5124195;27;20065;-72
2022/11/11 09:54:11;;;;;;;24.00;15.95;;;13.10;99.90;;;;;;5132915;27;20050;-71
2022/11/11 09:57:00;;;;;;;24.00;15.88;;;13.30;99.90;;;;;;5122857;27;20393;-72
2022/11/11 09:59:51;;;;;;;25.23;17.23;;;13.30;99.90;;;;;;5132675;27;20498;-73
2022/11/11 10:02:42;;;;;;;26.30;16.17;;;13.30;99.90;;;;;;5119174;27;20038;-72
2022/11/11 10:05:40;;;;;;;24.92;17.13;;;13.30;99.90;;;;;;5127199;27;20453;-72
2022/11/11 10:08:35;;;;;;;23.90;15.70;;;13.50;99.90;;;;;;5117740;27;20919;-73
2022/11/11 10:11:28;;;;;;;23.90;15.80;;;13.70;99.90;;;;;;5131721;27;20151;-72
2022/11/11 10:14:12;;;;;;;23.45;16.73;;;13.80;99.90;;;;;;5132847;27;20071;-73
2022/11/11 10:17:06;;;;;;;26.23;16.70;;;13.80;99.90;;;;;;5132582;27;20042;-71
2022/11/11 10:20:18;;;;;;;21.08;14.63;;;13.60;99.90;;;;;;5132630;27;20065;-71
2022/11/11 10:23:16;;;;;;;22.65;15.27;;;13.70;99.90;;;;;;5132340;27;20535;-73
2022/11/11 10:26:19;;;;;;;25.83;16.33;;;13.60;99.90;;;;;;5132724;27;20058;-72
2022/11/11 10:29:07;;;;;;;;;;;13.50;99.90;;;;;;5124570;27;20046;-72
2022/11/11 10:32:07;;;;;;;27.55;16.33;;;13.60;99.90;;;;;;5126232;27;19957;-73
2022/11/11 10:34:56;;;;;;;23.35;15.88;;;13.70;99.90;;;;;;5121547;27;20038;-73
2022/11/11 10:37:41;;;;;;;23.48;16.55;;;13.80;99.90;;;;;;5129787;27;20054;-73
2022/11/11 10:40:39;;;;;;;23.60;16.58;;;13.80;99.90;;;;;;5132449;27;20054;-72
2022/11/11 10:43:26;;;;;;;25.27;16.20;;;13.90;99.90;;;;;;5117791;27;20048;-76
2022/11/11 10:46:23;;;;;;;25.80;16.02;;;14.30;99.90;;;;;;5107802;27;20041;-75
2022/11/11 10:49:19;;;;;;;20.67;14.68;;;14.50;99.90;;;;;;5123380;27;20058;-72
2022/11/11 10:52:18;;;;;;;24.45;13.98;;;14.30;99.90;;;;;;5130601;27;20062;-72
2022/11/11 10:55:19;;;;;;;23.33;15.35;;;14.30;99.90;;;;;;5126222;27;20093;-74
2022/11/11 10:58:40;;;;;;;24.23;14.82;;;14.20;99.90;;;;;;5113027;27;20035;-75
2022/11/11 11:01:53;;;;;;;23.23;16.92;;;14.40;99.90;;;;;;5127523;27;20390;-74
2022/11/11 11:05:02;;;;;;;23.73;15.27;;;14.30;99.90;;;;;;5024687;28;20087;-72
2022/11/11 11:07:52;;;;;;;20.75;15.60;;;14.20;99.90;;;;;;5025134;28;20088;-75
2022/11/11 11:10:44;;;;;;;23.00;16.60;;;14.10;99.90;;;;;;5025998;28;20061;-71
2022/11/11 11:14:13;;;;;;;25.52;16.73;;;14.00;99.90;;;;;;5014031;28;20032;-72
2022/11/11 11:17:04;;;;;;;22.48;15.48;;;14.00;99.90;;;;;;4991326;28;20442;-79
2022/11/11 11:20:10;;;;;;;28.38;16.42;;;13.70;99.90;;;;;;4992267;28;20037;-73
2022/11/11 11:22:58;;;;;;;27.35;17.85;;;13.70;99.90;;;;;;4989152;28;20149;-73
2022/11/11 11:25:52;;;;;;;24.60;15.25;;;13.80;99.90;;;;;;4987505;28;20046;-73
2022/11/11 11:28:57;;;;;;;26.65;16.70;;;14.00;99.90;;;;;;4985000;28;20050;-74
2022/11/11 11:31:41;;;;;;;27.85;16.67;;;14.00;99.90;;;;;;4988036;28;20037;-73
2022/11/11 11:34:53;;;;;;;23.23;15.63;;;14.00;99.90;;;;;;4989370;28;20077;-71
2022/11/11 11:37:49;;;;;;;23.50;15.45;;;14.10;99.90;;;;;;4987456;28;20044;-72
2022/11/11 11:41:04;;;;;;;23.65;14.93;;;14.20;99.90;;;;;;4987841;28;20051;-74
2022/11/11 11:43:51;;;;;;;27.10;16.38;;;14.40;99.90;;;;;;5068424;28;20042;-71
2022/11/11 11:46:43;;;;;;;25.25;16.23;;;14.20;99.90;;;;;;5076005;27;20132;-72
2022/11/11 11:50:06;;;;;;;21.45;14.18;;;14.00;99.90;;;;;;5125973;27;20577;-75
2022/11/11 11:53:09;;;;;;;22.40;15.98;;;14.20;99.90;;;;;;5130794;27;20034;-73
2022/11/11 11:56:06;;;;;;;23.88;15.88;;;14.20;99.90;;;;;;5130683;27;20519;-72
2022/11/11 11:59:12;;;;;;;23.80;15.15;;;14.10;99.90;;;;;;5123499;27;20401;-73
2022/11/11 12:02:33;;;;;;;23.63;14.85;;;14.10;99.90;;;;;;5120091;27;20088;-73
2022/11/11 12:05:31;;;;;;;27.88;17.38;;;14.00;99.90;;;;;;5102792;27;20054;-75
2022/11/11 12:08:18;;;;;;;24.73;15.95;;;14.00;99.90;;;;;;5122287;27;20535;-74
2022/11/11 12:11:32;;;;;;;23.48;15.35;;;14.10;99.90;;;;;;5109681;27;20049;-74
2022/11/11 12:15:06;;;;;;;24.48;14.93;;;14.00;99.90;;;;;;5025625;28;20586;-78
2022/11/11 12:18:05;;;;;;;20.17;14.15;;;14.00;99.90;;;;;;4947474;29;20042;-74
2022/11/11 12:21:00;;;;;;;22.70;14.73;;;14.00;99.90;;;;;;4950386;28;20556;-74
2022/11/11 12:23:57;;;;;;;22.92;15.40;;;14.00;99.90;;;;;;4952736;28;20071;-75
2022/11/11 12:27:00;;;;;;;25.42;14.68;;;14.10;99.90;;;;;;4949578;29;20038;-76
2022/11/11 12:29:47;;;;;;;23.33;14.45;;;14.10;99.90;;;;;;4951209;28;20122;-75
2022/11/11 12:32:59;;;;;;;24.70;15.10;;;14.20;99.90;;;;;;4937703;28;20078;-78
2022/11/11 12:35:43;;;;;;;25.92;15.45;;;14.20;99.90;;;;;;4952783;28;20465;-75
2022/11/11 12:38:30;;;;;;;20.15;13.93;;;14.20;99.90;;;;;;4950937;28;20058;-74
2022/11/11 12:41:18;;;;;;;20.80;13.60;;;14.20;99.90;;;;;;4949727;29;20163;-75
2022/11/11 12:44:04;;;;;;;27.17;17.17;;;14.30;99.90;;;;;;4948685;29;20588;-76
2022/11/11 12:47:08;;;;;;;29.48;18.42;;;14.30;99.90;;;;;;4950872;28;20074;-75
2022/11/11 12:50:15;;;;;;;26.42;14.45;;;14.40;99.90;;;;;;4952606;28;20043;-75
2022/11/11 12:53:38;;;;;;;27.25;15.65;;;14.30;99.90;;;;;;5073546;27;20034;-75
2022/11/11 12:56:39;;;;;;;24.13;13.97;;;14.20;99.90;;;;;;5135725;27;20491;-75
2022/11/11 12:59:44;;;;;;;23.50;13.30;;;14.30;99.90;;;;;;5116153;27;20258;-75
2022/11/11 13:02:35;;;;;;;23.42;13.05;;;14.20;99.90;;;;;;5133417;27;20045;-76
2022/11/11 13:05:26;;;;;;;24.40;13.77;;;14.20;99.90;;;;;;5134258;27;20522;-74
2022/11/11 13:08:39;;;;;;;21.23;12.93;;;14.30;99.90;;;;;;5120290;27;20191;-77
2022/11/11 13:11:35;;;;;;;23.08;12.63;;;14.30;99.90;;;;;;5132660;27;20079;-74
2022/11/11 13:14:25;;;;;;;24.33;12.32;;;14.20;99.90;;;;;;5128874;27;20056;-76
2022/11/11 13:17:12;;;;;;;20.42;12.48;;;14.30;99.90;;;;;;5122436;27;20678;-73
2022/11/11 13:20:19;;;;;;;24.60;14.75;;;14.40;99.90;;;;;;5128424;27;20042;-75
2022/11/11 13:23:10;;;;;;;21.77;12.52;;;14.40;99.90;;;;;;5135677;27;20034;-75
2022/11/11 13:25:59;;;;;;;19.92;12.80;;;14.50;99.90;;;;;;5130356;27;20091;-75
2022/11/11 13:28:47;;;;;;;18.67;11.27;;;14.50;99.90;;;;;;5128462;27;20050;-74
2022/11/11 13:31:40;;;;;;;27.00;15.80;;;14.40;99.90;;;;;;5126464;27;20074;-74
2022/11/11 13:34:48;;;;;;;27.17;16.83;;;14.30;99.90;;;;;;5121164;27;20100;-75
2022/11/11 13:38:14;;;;;;;28.88;14.88;;;14.10;99.90;;;;;;5062434;28;20047;-74
2022/11/11 13:48:58;;;;;;;22.50;14.50;;;14.00;99.90;;;;;;4993835;28;20057;-76
2022/11/11 13:52:59;;;;;;;26.20;15.15;;;14.00;99.90;;;;;;5158339;23;20089;-75
2022/11/11 13:56:08;;;;;;;22.60;15.55;;;14.00;99.90;;;;;;5081767;28;20152;-76
2022/11/11 13:58:55;;;;;;;26.00;14.68;;;14.10;99.90;;;;;;5077206;28;20051;-76
2022/11/11 14:02:31;;;;;;;27.13;17.20;;;14.00;99.90;;;;;;5092047;28;20116;-76
2022/11/11 14:05:44;;;;;;;30.88;18.17;;;14.10;99.90;;;;;;5078547;28;20104;-76
2022/11/11 14:08:56;;;;;;;25.52;13.90;;;14.20;99.90;;;;;;5072543;28;20522;-74
2022/11/11 14:12:28;;;;;;;24.90;12.48;;;14.10;99.90;;;;;;5142257;22;20079;-78
2022/11/11 14:15:53;;;;;;;24.88;14.65;;;14.10;99.90;;;;;;5024428;28;20509;-76
2022/11/11 14:18:53;;;;;;;22.80;13.70;;;14.10;99.90;;;;;;5041608;28;20060;-77
2022/11/11 14:21:56;;;;;;;19.98;13.25;;;14.00;99.90;;;;;;5045574;28;20036;-75
2022/11/11 14:24:50;;;;;;;17.33;10.48;;;14.00;99.90;;;;;;5044238;28;20043;-76
2022/11/11 14:27:47;;;;;;;21.63;12.27;;;14.00;99.90;;;;;;5032935;28;20082;-76
2022/11/11 14:30:39;;;;;;;24.75;13.73;;;13.90;99.90;;;;;;5050231;28;20549;-77
2022/11/11 14:34:01;;;;;;;20.25;12.13;;;13.90;99.90;;;;;;5050942;28;20060;-77
2022/11/11 14:37:33;;;;;;;23.75;13.60;;;13.90;99.90;;;;;;5056012;28;20380;-78
2022/11/11 14:40:53;;;;;;;23.92;13.85;;;13.80;99.90;;;;;;5008629;28;20088;-79
2022/11/11 14:44:16;;;;;;;21.65;12.05;;;13.70;99.90;;;;;;4953358;28;20054;-77
2022/11/11 14:48:04;;;;;;;24.17;14.45;;;13.70;99.90;;;;;;5163350;23;20117;-78
2022/11/11 14:51:03;;;;;;;24.33;15.07;;;13.60;99.90;;;;;;5104488;22;20518;-77
2022/11/11 14:53:54;;;;;;;23.92;14.43;;;13.50;99.90;;;;;;5106166;28;20082;-78
2022/11/11 15:00:22;;;;;;;29.38;17.65;;;13.40;99.90;;;;;;5102039;28;20134;-78
2022/11/11 15:03:31;;;;;;;39.70;22.83;;;13.30;99.90;;;;;;5064070;28;20600;-77
2022/11/11 15:10:12;;;;;;;38.33;20.70;;;13.10;99.90;;;;;;5143933;23;20080;-76
2022/11/11 15:13:59;;;;;;;28.95;18.15;;;13.00;99.90;;;;;;4989947;28;20122;-78
2022/11/11 15:17:13;;;;;;;29.52;18.15;;;12.80;99.90;;;;;;4988479;28;20036;-76
2022/11/11 15:20:36;;;;;;;25.55;15.70;;;12.80;99.90;;;;;;4987708;28;20499;-78
2022/11/11 15:26:50;;;;;;;34.50;23.35;;;12.60;99.90;;;;;;4969802;28;20046;-77
2022/11/11 15:30:00;;;;;;;42.28;26.70;;;12.60;99.90;;;;;;4961405;28;20080;-75
2022/11/11 15:33:24;;;;;;;51.40;33.13;;;12.60;99.90;;;;;;4962662;28;20170;-76
2022/11/11 15:36:32;;;;;;;45.95;29.60;;;12.60;99.90;;;;;;4955636;28;20114;-79
2022/11/11 15:39:40;;;;;;;49.90;33.45;;;12.50;99.90;;;;;;5231430;23;20409;-76
2022/11/11 15:42:44;;;;;;;57.58;37.60;;;12.50;99.90;;;;;;4957978;28;20397;-78
2022/11/11 15:45:55;;;;;;;55.33;36.35;;;12.50;99.90;;;;;;4972993;28;20132;-80
2022/11/11 15:52:34;;;;;;;51.95;34.70;;;12.40;99.90;;;;;;4903468;29;20075;-75
2022/11/11 15:55:39;;;;;;;54.00;34.75;;;12.30;99.90;;;;;;4899124;29;20498;-73
2022/11/11 15:58:36;;;;;;;41.85;29.08;;;12.40;99.90;;;;;;4912839;29;20099;-76
2022/11/11 16:04:21;;;;;;;58.30;39.88;;;12.40;99.90;;;;;;4971001;28;20046;-76
2022/11/11 16:07:25;;;;;;;47.88;34.80;;;12.30;99.90;;;;;;4957255;28;20046;-76
2022/11/11 16:10:45;;;;;;;46.85;32.70;;;12.30;99.90;;;;;;4972119;28;20057;-77
2022/11/11 16:13:39;;;;;;;49.90;32.83;;;12.20;99.90;;;;;;4971717;28;20046;-76
2022/11/11 16:16:37;;;;;;;44.58;31.88;;;12.20;99.90;;;;;;4970635;28;20085;-77